New England — V7HF3 — position and weather

sailwx.info

Track history (hours):
 
Tides and Currents Weather Stations Pressure Air Temp Water Temp Dewpoint Dewpoint Depression Visibility Wind Speed Wind Dir Waves Ship Positions

New England

Last reported at 2018-May-26 07:59 UTC. Time now 2018-May-26 07:59 UTC.
Position N 42°24' W 071°01'.

Length 183 m; draft 7.6 m.

Type: Ship. MMSI: 538002220.

Date/timePositionNaut miles runAvg speedWind from/ knotsBaromVisibWave heightAir tempDewpointWater temp
2018-May-26 07:59N 42°24' W 071°01'0 0.0
2018-May-26 07:29N 42°24' W 071°01'0 0.0
2018-May-26 06:59N 42°24' W 071°01'0 0.0
2018-May-26 06:29N 42°24' W 071°01'0 0.0
2018-May-26 05:30N 42°24' W 071°01'0 0.0
2018-May-26 04:59N 42°24' W 071°01'0 0.0
2018-May-26 04:29N 42°24' W 071°01'0 0.0
2018-May-26 03:59N 42°24' W 071°01'0 0.0
2018-May-26 03:29N 42°24' W 071°01'0 0.0
2018-May-26 02:59N 42°24' W 071°01'0 0.0
2018-May-26 02:26N 42°24' W 071°01'0 0.0
2018-May-26 01:59N 42°24' W 071°01'0 0.0
2018-May-26 01:29N 42°24' W 071°01'0 0.0
2018-May-26 00:59N 42°24' W 071°01'0 0.0
2018-May-26 00:29N 42°24' W 071°01'0 0.0
2018-May-25 23:59N 42°24' W 071°01'0 0.0
2018-May-25 23:29N 42°24' W 071°01'0 0.0
2018-May-25 22:56N 42°24' W 071°01'0 0.0
2018-May-25 22:29N 42°24' W 071°01'0 0.0
2018-May-25 21:59N 42°24' W 071°01'0 0.0
2018-May-25 21:29N 42°24' W 071°01'0 0.0
2018-May-25 20:59N 42°24' W 071°01'0 0.0
2018-May-25 20:29N 42°24' W 071°01'0 0.0
2018-May-25 19:59N 42°24' W 071°01'0 0.0
2018-May-25 19:29N 42°24' W 071°01'0 0.0
2018-May-25 18:59N 42°24' W 071°01'0 0.0
2018-May-25 18:29N 42°24' W 071°01'0 0.0
2018-May-25 17:59N 42°24' W 071°01'0 0.0
2018-May-25 17:29N 42°24' W 071°01'0 0.0
2018-May-25 16:59N 42°24' W 071°01'0 0.0
2018-May-25 16:29N 42°24' W 071°01'0 0.0
2018-May-25 15:59N 42°24' W 071°01'0 0.0
2018-May-25 15:29N 42°24' W 071°01'0 0.0
2018-May-25 14:59N 42°24' W 071°01'0 0.0
2018-May-25 14:29N 42°24' W 071°01'0 0.0
2018-May-25 13:59N 42°24' W 071°01'0 0.0
2018-May-25 13:29N 42°24' W 071°01'0 0.0
2018-May-24 14:44N 42°24' W 071°01'0 0.0
2018-May-24 14:29N 42°24' W 071°01'0 0.0
2018-May-24 13:59N 42°24' W 071°01'0 0.0
2018-May-24 13:29N 42°24' W 071°01'14 3.1
2018-May-24 09:00N 42°27' W 070°43'0 0.9
2018-May-24 08:30N 42°27' W 070°42'0 0.9
2018-May-24 08:00N 42°27' W 070°42'1 2.2
2018-May-24 07:30N 42°28' W 070°42'5 9.9
2018-May-24 07:00N 42°31' W 070°36'613.0
2018-May-24 06:30N 42°35' W 070°29'713.0
2018-May-24 06:00N 42°38' W 070°21'712.8
2018-May-24 05:30N 42°42' W 070°14'612.8
2018-May-24 05:00N 42°45' W 070°07'612.8
2018-May-24 04:30N 42°49' W 069°59'612.7
2018-May-24 04:00N 42°52' W 069°52'612.8
2018-May-24 03:30N 42°56' W 069°45'612.9
2018-May-24 03:01N 42°59' W 069°37'52 1.1
2018-May-22 04:26N 43°39' W 068°52'613.4
2018-May-22 04:00N 43°39' W 069°00'913.2
2018-May-22 03:18N 43°38' W 069°13'413.2
2018-May-22 03:00N 43°38' W 069°18'  
Track history (hours):
 
Tides and Currents Weather Stations Pressure Air Temp Water Temp Dewpoint Dewpoint Depression Visibility Wind Speed Wind Dir Waves Ship Positions

New England

Last reported at 2018-May-26 07:59 UTC. Time now 2018-May-26 07:59 UTC.
Position N 42°24' W 071°01'.

Length 183 m; draft 7.6 m.

Type: Ship. MMSI: 538002220.

Date/timePositionNaut miles runAvg speedWind from/ knotsBaromVisibWave heightAir tempDewpointWater temp
2018-May-26 07:59N 42°24' W 071°01'0 0.0
2018-May-26 07:29N 42°24' W 071°01'0 0.0
2018-May-26 06:59N 42°24' W 071°01'0 0.0
2018-May-26 06:29N 42°24' W 071°01'0 0.0
2018-May-26 05:30N 42°24' W 071°01'0 0.0
2018-May-26 04:59N 42°24' W 071°01'0 0.0
2018-May-26 04:29N 42°24' W 071°01'0 0.0
2018-May-26 03:59N 42°24' W 071°01'0 0.0
2018-May-26 03:29N 42°24' W 071°01'0 0.0
2018-May-26 02:59N 42°24' W 071°01'0 0.0
2018-May-26 02:26N 42°24' W 071°01'0 0.0
2018-May-26 01:59N 42°24' W 071°01'0 0.0
2018-May-26 01:29N 42°24' W 071°01'0 0.0
2018-May-26 00:59N 42°24' W 071°01'0 0.0
2018-May-26 00:29N 42°24' W 071°01'0 0.0
2018-May-25 23:59N 42°24' W 071°01'0 0.0
2018-May-25 23:29N 42°24' W 071°01'0 0.0
2018-May-25 22:56N 42°24' W 071°01'0 0.0
2018-May-25 22:29N 42°24' W 071°01'0 0.0
2018-May-25 21:59N 42°24' W 071°01'0 0.0
2018-May-25 21:29N 42°24' W 071°01'0 0.0
2018-May-25 20:59N 42°24' W 071°01'0 0.0
2018-May-25 20:29N 42°24' W 071°01'0 0.0
2018-May-25 19:59N 42°24' W 071°01'0 0.0
2018-May-25 19:29N 42°24' W 071°01'0 0.0
2018-May-25 18:59N 42°24' W 071°01'0 0.0
2018-May-25 18:29N 42°24' W 071°01'0 0.0
2018-May-25 17:59N 42°24' W 071°01'0 0.0
2018-May-25 17:29N 42°24' W 071°01'0 0.0
2018-May-25 16:59N 42°24' W 071°01'0 0.0
2018-May-25 16:29N 42°24' W 071°01'0 0.0
2018-May-25 15:59N 42°24' W 071°01'0 0.0
2018-May-25 15:29N 42°24' W 071°01'0 0.0
2018-May-25 14:59N 42°24' W 071°01'0 0.0
2018-May-25 14:29N 42°24' W 071°01'0 0.0
2018-May-25 13:59N 42°24' W 071°01'0 0.0
2018-May-25 13:29N 42°24' W 071°01'0 0.0
2018-May-24 14:44N 42°24' W 071°01'0 0.0
2018-May-24 14:29N 42°24' W 071°01'0 0.0
2018-May-24 13:59N 42°24' W 071°01'0 0.0
2018-May-24 13:29N 42°24' W 071°01'14 3.1
2018-May-24 09:00N 42°27' W 070°43'0 0.9
2018-May-24 08:30N 42°27' W 070°42'0 0.9
2018-May-24 08:00N 42°27' W 070°42'1 2.2
2018-May-24 07:30N 42°28' W 070°42'5 9.9
2018-May-24 07:00N 42°31' W 070°36'613.0
2018-May-24 06:30N 42°35' W 070°29'713.0
2018-May-24 06:00N 42°38' W 070°21'712.8
2018-May-24 05:30N 42°42' W 070°14'612.8
2018-May-24 05:00N 42°45' W 070°07'612.8
2018-May-24 04:30N 42°49' W 069°59'612.7
2018-May-24 04:00N 42°52' W 069°52'612.8
2018-May-24 03:30N 42°56' W 069°45'612.9
2018-May-24 03:01N 42°59' W 069°37'52 1.1
2018-May-22 04:26N 43°39' W 068°52'613.4
2018-May-22 04:00N 43°39' W 069°00'913.2
2018-May-22 03:18N 43°38' W 069°13'413.2
2018-May-22 03:00N 43°38' W 069°18'  

Dump ship's entire track history